Hauptseite
METAR-TAF:

METAR-TAF

Flughäfen :

Flughafen Saint Brieuc

Saint-Brieuc, Frankreich

Breite: 48-32N, Länge: 002-51W, Höhe: 138 m

Beobachtung

Neuester Wetterbericht von vor 16 Minuten, um 10:30 UTC
Wind 9 kt aus Süd/Südwest, Böen bis zu 24 kt, variierte zwischen Süd/Südost und West/Südwest
Temperatur 10°C
Luftfeuchtigkeit 76%
Luftdruck 998 hPa
Sichtweite 10 km oder mehr
Leichtregen

METAR: LFRT 251030Z AUTO 21009G24KT 160V250 9999 -RA SCT031/// BKN041/// BKN048/// ///TCU 10/06 Q0998

Zeit: 12:46 (10:46 UTC)


TAF: fehlend

Wetterbeobachtungen und Prognosen von mehr als 4000 Flughäfen (METAR und TAF Bericht).

Die verfügbaren Stationen werden durch gelbe und rote Markierungen auf der Karte dargestellt.

Führen Sie die Maus auf sie, um den Namen der Station zu sehen.

Darauf klicken, um die Beobachtung von Wetterbeobachtungen und Prognosen zu sehen.

Um die Karte zu ändern : klicken Sie auf den grünen Tasten mit einem schwarzen Kreuz Zum Vergrößern, auf den grünen Button mit einem Gedankenstrich zu verkleinern, oder auf die grünen Pfeile für benachbarte Karten.


METAR-TAF: